Time;durP1;ratioP1;P1;durP2;ratioP2;P2;SDS_P1;SDS_P2;PMS_P1;PMS_P2;Temp;Humidity;BMP_temperature;BMP_pressure;BME280_temperature;BME280_humidity;BME280_pressure;Samples;Min_cycle;Max_cycle;Signal;HPM_P1;HPM_P2
2021/09/29 00:00:22;;;;;;;0.50;0.40;;;12.90;99.90;;;;;;5076445;28;20199;-81
2021/09/29 00:02:48;;;;;;;0.50;0.40;;;13.00;99.90;;;;;;5076411;28;20476;-81
2021/09/29 00:05:15;;;;;;;0.50;0.40;;;13.00;99.90;;;;;;5076964;28;20198;-81
2021/09/29 00:07:42;;;;;;;0.50;0.40;;;12.90;99.90;;;;;;5077120;28;20195;-81
2021/09/29 00:10:11;;;;;;;0.50;0.40;;;12.90;99.90;;;;;;5079041;28;20544;-80
2021/09/29 00:12:38;;;;;;;0.50;0.40;;;13.00;99.90;;;;;;5080427;28;20214;-81
2021/09/29 00:15:10;;;;;;;0.50;0.40;;;13.00;99.90;;;;;;5080484;28;20205;-80
2021/09/29 00:17:37;;;;;;;0.50;0.40;;;13.00;99.90;;;;;;5081249;28;20217;-81
2021/09/29 00:20:05;;;;;;;0.50;0.40;;;13.00;99.90;;;;;;5081188;28;20198;-80
2021/09/29 00:22:32;;;;;;;0.50;0.40;;;13.00;99.90;;;;;;5080558;28;20598;-81
2021/09/29 00:24:58;;;;;;;0.50;0.40;;;13.00;99.90;;;;;;5080395;28;20439;-80
2021/09/29 00:27:26;;;;;;;2.08;1.98;;;13.10;99.90;;;;;;5079970;28;20436;-81
2021/09/29 00:29:54;;;;;;;0.50;0.40;;;13.10;99.90;;;;;;5079740;28;20698;-82
2021/09/29 00:32:21;;;;;;;0.50;0.40;;;13.10;99.90;;;;;;5080168;28;20463;-80
2021/09/29 00:34:48;;;;;;;0.50;0.40;;;13.10;99.90;;;;;;5080342;28;20248;-81
2021/09/29 00:37:14;;;;;;;0.50;0.40;;;13.10;99.90;;;;;;5080393;28;20667;-80
2021/09/29 00:39:41;;;;;;;0.50;0.40;;;13.00;99.90;;;;;;5080136;28;20432;-80
2021/09/29 00:42:08;;;;;;;0.50;0.40;;;13.00;99.90;;;;;;5079922;28;20210;-80
2021/09/29 00:44:36;;;;;;;0.50;0.40;;;13.00;99.90;;;;;;5079908;28;20205;-81
2021/09/29 00:47:03;;;;;;;0.50;0.40;;;12.90;99.90;;;;;;5079759;28;20443;-81
2021/09/29 00:49:30;;;;;;;0.50;0.40;;;12.90;99.90;;;;;;5079801;28;20200;-81
2021/09/29 00:51:57;;;;;;;0.50;0.40;;;12.90;99.90;;;;;;5080344;28;20187;-80
2021/09/29 00:54:28;;;;;;;0.50;0.40;;;12.80;99.90;;;;;;5079270;28;20253;-81
2021/09/29 00:56:55;;;;;;;0.50;0.40;;;12.80;99.90;;;;;;5079375;28;20208;-80
2021/09/29 00:59:22;;;;;;;0.50;0.40;;;12.80;99.90;;;;;;5080473;28;20206;-81
2021/09/29 01:01:51;;;;;;;0.50;0.40;;;12.80;99.90;;;;;;5079598;28;20244;-80
2021/09/29 01:04:18;;;;;;;0.50;0.30;;;12.80;99.90;;;;;;5079372;28;20230;-81
2021/09/29 01:06:55;;;;;;;0.50;0.40;;;12.80;99.90;;;;;;5079464;28;20444;-81
2021/09/29 01:09:30;;;;;;;0.50;0.40;;;12.80;99.90;;;;;;5079964;28;20441;-81
2021/09/29 01:12:01;;;;;;;0.50;0.40;;;12.80;99.90;;;;;;5078966;28;20420;-81
2021/09/29 01:14:39;;;;;;;0.50;0.50;;;12.80;99.90;;;;;;5080032;28;20246;-82
2021/09/29 01:17:07;;;;;;;0.50;0.43;;;12.80;99.90;;;;;;5079862;28;20186;-81
2021/09/29 01:19:48;;;;;;;0.50;0.40;;;12.90;99.90;;;;;;5079054;28;20248;-81
2021/09/29 01:22:22;;;;;;;0.50;0.40;;;12.80;99.90;;;;;;5079643;28;20603;-82
2021/09/29 01:24:55;;;;;;;0.50;0.40;;;12.80;99.90;;;;;;5079020;28;20635;-79
2021/09/29 01:27:24;;;;;;;0.50;0.40;;;12.80;99.90;;;;;;5079319;28;20686;-81
2021/09/29 01:29:52;;;;;;;0.50;0.40;;;12.80;99.90;;;;;;5079021;28;20194;-81
2021/09/29 01:32:20;;;;;;;0.60;0.50;;;12.80;99.90;;;;;;5079377;28;20436;-81
2021/09/29 01:34:47;;;;;;;0.50;0.40;;;12.80;99.90;;;;;;5079562;28;20201;-82
2021/09/29 01:37:14;;;;;;;0.50;0.40;;;12.90;99.90;;;;;;5078889;28;20197;-80
2021/09/29 01:39:41;;;;;;;0.50;0.40;;;12.80;99.90;;;;;;5078889;28;20197;-80
2021/09/29 01:42:09;;;;;;;0.50;0.30;;;12.80;99.90;;;;;;5078862;28;20213;-81
2021/09/29 01:44:37;;;;;;;0.50;0.40;;;12.70;99.90;;;;;;5079383;28;20685;-81
2021/09/29 01:47:05;;;;;;;0.50;0.40;;;12.80;99.90;;;;;;5079592;28;20198;-80
2021/09/29 01:49:37;;;;;;;0.50;0.40;;;12.70;99.90;;;;;;5079572;28;20205;-80
2021/09/29 01:52:07;;;;;;;0.50;0.40;;;12.70;99.90;;;;;;5078294;28;20183;-80
2021/09/29 01:54:37;;;;;;;0.50;0.40;;;12.60;99.90;;;;;;5079036;28;20202;-80
2021/09/29 01:57:04;;;;;;;0.50;0.40;;;12.60;99.90;;;;;;5079484;28;20551;-80
2021/09/29 01:59:31;;;;;;;0.50;0.40;;;12.60;99.90;;;;;;5079358;28;20194;-82
2021/09/29 02:01:59;;;;;;;0.50;0.40;;;12.70;99.90;;;;;;5078634;28;20209;-80
2021/09/29 02:04:26;;;;;;;0.50;0.30;;;12.70;99.90;;;;;;5078566;28;20634;-81
2021/09/29 02:06:54;;;;;;;0.50;0.40;;;12.60;99.90;;;;;;5079532;28;20190;-81
2021/09/29 02:09:22;;;;;;;0.60;0.40;;;12.60;99.90;;;;;;5078461;28;20202;-81
2021/09/29 02:11:49;;;;;;;0.50;0.40;;;12.60;99.90;;;;;;5079042;28;20447;-81
2021/09/29 02:14:18;;;;;;;0.50;0.40;;;12.50;99.90;;;;;;5078539;28;20217;-82
2021/09/29 02:16:45;;;;;;;0.50;0.40;;;12.60;99.90;;;;;;5078691;28;20222;-81
2021/09/29 02:19:13;;;;;;;0.50;0.40;;;12.60;99.90;;;;;;5078629;28;20198;-79
2021/09/29 02:21:41;;;;;;;0.50;0.40;;;12.60;99.90;;;;;;5078299;28;20221;-79
2021/09/29 02:24:08;;;;;;;0.50;0.40;;;12.60;99.90;;;;;;5078611;28;20491;-80
2021/09/29 02:26:36;;;;;;;0.50;0.40;;;12.60;99.90;;;;;;5078029;28;20202;-80
2021/09/29 02:29:04;;;;;;;0.60;0.60;;;12.60;99.90;;;;;;5078305;28;20194;-81
2021/09/29 02:31:31;;;;;;;0.50;0.40;;;12.70;99.90;;;;;;5076702;28;20204;-82
2021/09/29 02:33:58;;;;;;;0.50;0.40;;;12.70;99.90;;;;;;5077435;28;20215;-79
2021/09/29 02:36:26;;;;;;;0.50;0.40;;;12.70;99.90;;;;;;5077618;28;20436;-81
2021/09/29 02:38:53;;;;;;;0.50;0.40;;;12.70;99.90;;;;;;5076877;28;20197;-80
2021/09/29 02:41:20;;;;;;;0.70;0.60;;;12.70;99.90;;;;;;5076039;28;20198;-82
2021/09/29 02:43:47;;;;;;;0.50;0.40;;;12.80;99.90;;;;;;5077386;28;20225;-80
2021/09/29 02:46:14;;;;;;;0.50;0.40;;;12.80;99.90;;;;;;5077256;28;20224;-82
2021/09/29 02:48:41;;;;;;;0.50;0.40;;;12.80;99.90;;;;;;5077376;28;20193;-81
2021/09/29 02:51:07;;;;;;;0.50;0.40;;;12.80;99.90;;;;;;5076575;28;20248;-80
2021/09/29 02:53:35;;;;;;;0.50;0.40;;;12.80;99.90;;;;;;5077169;28;20221;-80
2021/09/29 02:56:04;;;;;;;0.50;0.30;;;12.80;99.90;;;;;;5077258;28;20448;-80
2021/09/29 02:58:31;;;;;;;13.63;1.23;;;12.90;99.90;;;;;;5077624;28;20293;-82
2021/09/29 03:00:59;;;;;;;0.50;0.40;;;12.90;99.90;;;;;;5076268;28;20433;-81
2021/09/29 03:03:26;;;;;;;0.50;0.40;;;12.90;99.90;;;;;;5125419;22;21329;-78
2021/09/29 03:05:54;;;;;;;0.50;0.40;;;12.90;99.90;;;;;;5023986;28;20459;-78
2021/09/29 03:08:20;;;;;;;0.50;0.40;;;12.90;99.90;;;;;;5033505;28;20193;-80
2021/09/29 03:10:49;;;;;;;0.50;0.40;;;12.90;99.90;;;;;;5033089;28;21005;-79
2021/09/29 03:13:15;;;;;;;0.50;0.40;;;12.90;99.90;;;;;;5023841;28;20444;-79
2021/09/29 03:15:42;;;;;;;0.95;0.95;;;12.90;99.90;;;;;;5013908;28;20451;-80
2021/09/29 03:18:09;;;;;;;0.50;0.40;;;12.90;99.90;;;;;;5014146;28;20263;-79
2021/09/29 03:20:36;;;;;;;0.50;0.50;;;12.90;99.90;;;;;;5013694;28;20557;-81
2021/09/29 03:23:03;;;;;;;0.50;0.40;;;12.80;99.90;;;;;;5016071;28;20829;-79
2021/09/29 03:25:30;;;;;;;0.50;0.40;;;12.80;99.90;;;;;;5017787;28;21119;-79
2021/09/29 03:27:59;;;;;;;0.50;0.40;;;12.70;99.90;;;;;;5018138;28;20439;-79
2021/09/29 03:30:25;;;;;;;0.50;0.40;;;12.70;99.90;;;;;;5016887;28;20483;-81
2021/09/29 03:32:52;;;;;;;0.50;0.40;;;12.70;99.90;;;;;;5015643;28;20191;-82
2021/09/29 03:35:19;;;;;;;0.50;0.40;;;12.70;99.90;;;;;;5015542;28;20231;-81
2021/09/29 03:37:46;;;;;;;0.50;0.40;;;12.70;99.90;;;;;;5015880;28;20800;-82
2021/09/29 03:40:14;;;;;;;0.50;0.40;;;12.70;99.90;;;;;;5015053;28;20443;-81
2021/09/29 03:42:41;;;;;;;2.45;2.35;;;12.70;99.90;;;;;;5015454;28;20494;-81
2021/09/29 03:45:12;;;;;;;0.50;0.40;;;12.70;99.90;;;;;;5020963;28;20220;-82
2021/09/29 03:47:40;;;;;;;0.50;0.40;;;12.70;99.90;;;;;;5028967;28;20427;-80
2021/09/29 03:50:08;;;;;;;2.67;2.58;;;12.70;99.90;;;;;;5027524;28;20200;-82
2021/09/29 03:52:34;;;;;;;0.50;0.50;;;12.70;99.90;;;;;;5019920;28;20195;-82
2021/09/29 03:55:01;;;;;;;0.50;0.40;;;12.70;99.90;;;;;;5019875;28;20223;-82
2021/09/29 03:57:28;;;;;;;0.50;0.40;;;12.70;99.90;;;;;;5019025;28;20203;-82
2021/09/29 03:59:55;;;;;;;0.50;0.40;;;12.70;99.90;;;;;;5019819;28;20444;-82
2021/09/29 04:02:23;;;;;;;0.50;0.40;;;12.70;99.90;;;;;;5018736;28;20200;-82
2021/09/29 04:04:49;;;;;;;0.50;0.40;;;12.70;99.90;;;;;;5018975;28;20822;-82
2021/09/29 04:07:16;;;;;;;0.50;0.40;;;12.70;99.90;;;;;;5019481;28;20196;-82
2021/09/29 04:09:43;;;;;;;0.50;0.40;;;12.60;99.90;;;;;;5019724;28;20203;-81
2021/09/29 04:12:09;;;;;;;0.50;0.40;;;12.60;99.90;;;;;;5018065;28;20670;-84
2021/09/29 04:14:36;;;;;;;0.50;0.40;;;12.60;99.90;;;;;;5019177;28;20217;-81
2021/09/29 04:17:03;;;;;;;0.50;0.40;;;12.60;99.90;;;;;;5018583;28;20200;-81
2021/09/29 04:19:31;;;;;;;0.50;0.40;;;12.60;99.90;;;;;;5018463;28;20254;-82
2021/09/29 04:21:58;;;;;;;0.50;0.40;;;12.60;99.90;;;;;;5018799;28;20451;-81
2021/09/29 04:24:25;;;;;;;0.50;0.40;;;12.50;99.90;;;;;;5018354;28;20601;-80
2021/09/29 04:26:51;;;;;;;0.50;0.40;;;12.40;99.90;;;;;;5019643;28;20195;-81
2021/09/29 04:29:18;;;;;;;0.50;0.40;;;12.40;99.90;;;;;;5018760;28;20216;-81
2021/09/29 04:31:45;;;;;;;0.50;0.40;;;12.40;99.90;;;;;;5018332;28;20203;-81
2021/09/29 04:34:12;;;;;;;0.50;0.40;;;12.40;99.90;;;;;;5018336;28;20216;-80
2021/09/29 04:36:40;;;;;;;14.40;2.80;;;12.40;99.90;;;;;;5018197;28;20204;-80
2021/09/29 04:39:06;;;;;;;0.50;0.40;;;12.30;99.90;;;;;;5018506;28;20195;-82
2021/09/29 04:41:33;;;;;;;0.88;0.88;;;12.30;99.90;;;;;;5018456;28;20446;-82
2021/09/29 04:44:00;;;;;;;0.50;0.40;;;12.30;99.90;;;;;;5018128;28;20273;-81
2021/09/29 04:46:26;;;;;;;1.33;1.23;;;12.40;99.90;;;;;;5017869;28;20435;-82
2021/09/29 04:48:53;;;;;;;0.50;0.40;;;12.30;99.90;;;;;;5017944;28;20444;-81
2021/09/29 04:51:20;;;;;;;0.50;0.40;;;12.30;99.90;;;;;;5017637;28;20196;-82
2021/09/29 04:53:48;;;;;;;0.50;0.40;;;12.30;99.90;;;;;;5018120;28;20239;-81
2021/09/29 04:56:15;;;;;;;0.50;0.40;;;12.20;99.90;;;;;;5017101;28;20204;-81
2021/09/29 04:58:43;;;;;;;0.50;0.40;;;12.20;99.90;;;;;;5018464;28;20196;-81
2021/09/29 05:01:10;;;;;;;0.50;0.40;;;12.20;99.90;;;;;;5017977;28;20207;-81
2021/09/29 05:03:37;;;;;;;0.50;0.40;;;12.10;99.90;;;;;;5017571;28;20586;-81
2021/09/29 05:06:04;;;;;;;0.50;0.40;;;12.10;99.90;;;;;;5018555;28;20181;-82
2021/09/29 05:08:34;;;;;;;0.50;0.40;;;12.10;99.90;;;;;;5018001;28;20207;-82
2021/09/29 05:11:06;;;;;;;0.50;0.40;;;12.10;99.90;;;;;;5017971;28;20643;-82
2021/09/29 05:13:34;;;;;;;0.50;0.40;;;12.10;99.90;;;;;;5018943;28;20215;-81
2021/09/29 05:16:02;;;;;;;0.50;0.40;;;12.10;99.90;;;;;;5019732;28;20470;-81
2021/09/29 05:18:30;;;;;;;0.50;0.40;;;12.10;99.90;;;;;;5021000;28;20200;-82
2021/09/29 05:20:57;;;;;;;0.50;0.40;;;12.10;99.90;;;;;;5026802;28;20198;-83
2021/09/29 05:23:25;;;;;;;0.50;0.40;;;12.10;99.90;;;;;;5038413;28;20489;-82
2021/09/29 05:25:52;;;;;;;0.50;0.40;;;12.20;99.90;;;;;;5039489;28;20452;-82
2021/09/29 05:28:24;;;;;;;0.50;0.40;;;12.20;99.90;;;;;;5042890;28;20282;-82
2021/09/29 05:30:51;;;;;;;0.50;0.40;;;12.20;99.90;;;;;;5042618;28;20206;-81
2021/09/29 05:33:17;;;;;;;0.50;0.40;;;12.30;99.90;;;;;;5041200;28;20199;-82
2021/09/29 05:35:44;;;;;;;0.50;0.40;;;12.30;99.90;;;;;;5048537;28;20199;-83
2021/09/29 05:38:11;;;;;;;0.93;0.93;;;12.40;99.90;;;;;;5054541;28;20187;-81
2021/09/29 05:40:38;;;;;;;0.50;0.40;;;12.50;99.90;;;;;;5054153;28;20435;-80
2021/09/29 05:43:05;;;;;;;0.50;0.40;;;12.60;99.90;;;;;;5052236;28;20210;-82
2021/09/29 05:45:33;;;;;;;0.50;0.40;;;12.70;99.90;;;;;;5052174;28;20202;-84
2021/09/29 05:48:00;;;;;;;0.50;0.40;;;12.80;99.90;;;;;;5049156;28;20196;-81
2021/09/29 05:50:27;;;;;;;0.60;0.60;;;12.80;99.90;;;;;;5049588;28;20207;-80
2021/09/29 05:52:54;;;;;;;0.50;0.40;;;12.90;99.90;;;;;;5051544;28;20441;-83
2021/09/29 05:55:23;;;;;;;0.50;0.40;;;13.00;99.90;;;;;;5049761;28;20458;-84
2021/09/29 05:57:49;;;;;;;0.50;0.38;;;13.00;99.90;;;;;;5051378;28;20633;-83
2021/09/29 06:00:17;;;;;;;0.50;0.40;;;13.10;99.90;;;;;;5053308;28;20202;-83
2021/09/29 06:02:45;;;;;;;0.50;0.40;;;13.20;99.90;;;;;;5053826;28;20434;-84
2021/09/29 06:05:12;;;;;;;0.50;0.40;;;13.20;99.90;;;;;;5048715;28;20478;-83
2021/09/29 06:07:38;;;;;;;0.50;0.40;;;13.30;99.90;;;;;;5047850;28;20434;-84
2021/09/29 06:10:07;;;;;;;0.50;0.37;;;13.40;99.90;;;;;;5047471;28;20458;-81
2021/09/29 06:12:34;;;;;;;1.47;0.93;;;13.40;99.90;;;;;;5047710;28;20442;-84
2021/09/29 06:15:00;;;;;;;0.60;0.50;;;13.50;99.90;;;;;;5040704;28;20462;-83
2021/09/29 06:17:36;;;;;;;0.50;0.40;;;13.50;99.90;;;;;;5050178;28;20916;-86
2021/09/29 06:20:07;;;;;;;0.50;0.40;;;13.60;99.90;;;;;;5049477;28;20907;-83
2021/09/29 06:22:33;;;;;;;0.50;0.40;;;13.60;99.90;;;;;;5048182;28;20449;-83
2021/09/29 06:25:00;;;;;;;0.50;0.50;;;13.70;99.90;;;;;;5050356;28;20485;-85
2021/09/29 06:27:27;;;;;;;0.50;0.40;;;13.80;99.90;;;;;;5051103;28;20422;-84
2021/09/29 06:29:54;;;;;;;0.50;0.40;;;13.90;99.90;;;;;;5051775;28;20447;-85
2021/09/29 06:32:21;;;;;;;1.00;0.80;;;13.90;99.90;;;;;;5050833;28;20431;-83
2021/09/29 06:34:47;;;;;;;0.50;0.40;;;13.90;99.90;;;;;;5051114;28;20988;-84
2021/09/29 06:37:15;;;;;;;0.50;0.40;;;13.80;99.90;;;;;;5045023;28;20470;-82
2021/09/29 06:39:42;;;;;;;0.50;0.40;;;13.50;99.90;;;;;;5029396;28;20444;-82
2021/09/29 06:42:09;;;;;;;0.50;0.40;;;13.20;99.90;;;;;;5040939;28;20441;-80
2021/09/29 06:44:36;;;;;;;0.50;0.40;;;13.00;99.90;;;;;;5041209;28;20319;-80
2021/09/29 06:47:02;;;;;;;0.50;0.40;;;12.80;99.90;;;;;;5046036;28;20444;-80
2021/09/29 06:49:29;;;;;;;0.50;0.40;;;12.70;99.90;;;;;;5047301;28;20200;-82
2021/09/29 06:51:56;;;;;;;0.50;0.40;;;12.70;99.90;;;;;;5048921;28;20196;-83
2021/09/29 06:54:25;;;;;;;0.50;0.40;;;12.60;99.90;;;;;;5049935;28;20530;-81
2021/09/29 06:56:52;;;;;;;0.50;0.40;;;12.60;99.90;;;;;;5047877;28;20553;-84
2021/09/29 06:59:18;;;;;;;0.50;0.40;;;12.50;99.90;;;;;;5045880;28;20194;-80
2021/09/29 07:01:47;;;;;;;0.50;0.40;;;12.50;99.90;;;;;;5047153;28;20202;-79
2021/09/29 07:04:13;;;;;;;0.50;0.40;;;12.50;99.90;;;;;;5044469;28;20725;-84
2021/09/29 07:06:40;;;;;;;0.52;0.45;;;12.50;99.90;;;;;;5042322;28;20207;-82
2021/09/29 07:09:08;;;;;;;0.50;0.40;;;12.40;99.90;;;;;;5042189;28;20570;-83
2021/09/29 07:11:36;;;;;;;0.73;0.73;;;12.40;99.90;;;;;;5042545;28;20249;-84
2021/09/29 07:14:03;;;;;;;0.50;0.40;;;12.40;99.90;;;;;;5041200;28;20465;-80
2021/09/29 07:16:30;;;;;;;1.17;1.08;;;12.40;99.90;;;;;;5040854;28;20211;-84
2021/09/29 07:19:01;;;;;;;0.50;0.40;;;12.40;99.90;;;;;;5040322;28;20205;-83
2021/09/29 07:21:28;;;;;;;0.50;0.40;;;12.40;99.90;;;;;;5040019;28;20480;-83
2021/09/29 07:23:55;;;;;;;0.50;0.40;;;12.40;99.90;;;;;;5040396;28;20482;-81
2021/09/29 07:26:21;;;;;;;0.50;0.40;;;12.50;99.90;;;;;;5048065;28;20431;-82
2021/09/29 07:28:49;;;;;;;0.50;0.40;;;12.40;99.90;;;;;;5048752;28;20430;-83
2021/09/29 07:31:16;;;;;;;0.50;0.40;;;12.40;99.90;;;;;;5040035;28;20453;-82
2021/09/29 07:33:43;;;;;;;0.50;0.40;;;12.40;99.90;;;;;;5042898;28;20234;-83
2021/09/29 07:36:11;;;;;;;0.50;0.40;;;12.40;99.90;;;;;;5045656;28;20465;-82
2021/09/29 07:38:39;;;;;;;0.50;0.40;;;12.40;99.90;;;;;;5047299;28;20795;-84
2021/09/29 07:41:06;;;;;;;0.50;0.40;;;12.50;99.90;;;;;;5046597;28;20199;-84
2021/09/29 07:43:33;;;;;;;0.50;0.40;;;12.60;99.90;;;;;;5046972;28;20462;-85
2021/09/29 07:46:01;;;;;;;0.50;0.40;;;12.80;99.90;;;;;;5047556;28;20478;-84
2021/09/29 07:48:27;;;;;;;0.53;0.47;;;13.10;99.90;;;;;;5046235;28;20442;-84
2021/09/29 07:50:55;;;;;;;0.50;0.40;;;13.30;99.90;;;;;;5046529;28;20576;-83
2021/09/29 07:53:25;;;;;;;1.63;1.30;;;13.40;99.90;;;;;;5046956;28;20453;-83
2021/09/29 07:55:53;;;;;;;0.50;0.30;;;13.50;99.90;;;;;;5046468;28;20477;-86
2021/09/29 07:58:19;;;;;;;0.50;0.40;;;13.40;99.90;;;;;;5045349;28;20442;-87
2021/09/29 08:00:46;;;;;;;0.50;0.40;;;13.40;99.90;;;;;;5044566;28;20439;-84
2021/09/29 08:03:14;;;;;;;0.50;0.40;;;13.40;99.90;;;;;;5042665;28;20444;-85
2021/09/29 08:05:41;;;;;;;0.50;0.40;;;13.30;99.90;;;;;;5047853;28;20482;-84
2021/09/29 08:08:08;;;;;;;0.50;0.40;;;13.40;99.90;;;;;;5046838;28;20442;-86
2021/09/29 08:10:35;;;;;;;0.70;0.50;;;13.40;99.90;;;;;;5045397;28;20951;-85
2021/09/29 08:13:02;;;;;;;0.80;0.80;;;13.50;99.90;;;;;;5044021;28;20438;-83
2021/09/29 08:15:29;;;;;;;0.50;0.40;;;13.60;99.90;;;;;;5044834;28;20435;-85
2021/09/29 08:17:56;;;;;;;0.60;0.60;;;13.50;99.90;;;;;;5044909;28;20453;-85
2021/09/29 08:20:27;;;;;;;0.50;0.50;;;13.60;99.90;;;;;;5045206;28;20434;-85
2021/09/29 08:22:58;;;;;;;0.50;0.40;;;13.70;99.90;;;;;;5048121;28;20454;-84
2021/09/29 08:26:04;;;;;;;0.50;0.40;;;13.70;99.90;;;;;;5034422;28;21246;-83
2021/09/29 08:28:45;;;;;;;0.83;0.57;;;13.60;99.90;;;;;;5046436;28;20438;-85
2021/09/29 08:31:17;;;;;;;0.60;0.50;;;13.50;99.90;;;;;;5047496;28;20438;-86
2021/09/29 08:34:01;;;;;;;0.50;0.40;;;13.40;99.90;;;;;;5045272;28;20478;-85
2021/09/29 08:36:34;;;;;;;1.60;1.50;;;13.30;99.90;;;;;;5031025;28;20642;-82
2021/09/29 08:39:04;;;;;;;0.50;0.40;;;13.30;99.90;;;;;;5039242;28;20535;-84
2021/09/29 08:44:21;;;;;;;1.20;1.10;;;13.10;99.90;;;;;;5037674;28;20500;-82
2021/09/29 08:47:00;;;;;;;1.08;1.08;;;13.10;99.90;;;;;;5042424;28;20431;-82
2021/09/29 08:49:35;;;;;;;0.73;0.67;;;13.00;99.90;;;;;;5040875;28;20202;-80
2021/09/29 08:52:34;;;;;;;0.60;0.60;;;13.00;99.90;;;;;;5041733;28;20448;-82
2021/09/29 08:58:04;;;;;;;0.70;0.70;;;13.00;99.90;;;;;;5041314;28;20413;-82
2021/09/29 09:14:52;;;;;;;1.20;0.90;;;12.90;99.90;;;;;;5041243;28;20203;-85
2021/09/29 09:17:27;;;;;;;0.50;0.40;;;12.90;99.90;;;;;;5039738;28;20517;-84
2021/09/29 09:19:54;;;;;;;1.80;1.00;;;13.00;99.90;;;;;;5039508;28;20457;-83
2021/09/29 09:22:32;;;;;;;10.33;1.83;;;12.90;99.90;;;;;;5039606;28;20456;-83
2021/09/29 09:25:00;;;;;;;0.50;0.30;;;12.90;99.90;;;;;;5038782;28;20745;-83
2021/09/29 09:27:38;;;;;;;0.70;0.50;;;12.90;99.90;;;;;;5039553;28;20439;-82
2021/09/29 09:30:06;;;;;;;0.70;0.70;;;12.90;99.90;;;;;;5039381;28;20513;-81
2021/09/29 09:32:43;;;;;;;0.60;0.60;;;12.90;99.90;;;;;;5033963;28;20443;-84
2021/09/29 09:35:13;;;;;;;0.80;0.80;;;12.90;99.90;;;;;;5040598;28;21109;-83
2021/09/29 09:37:42;;;;;;;0.50;0.40;;;12.80;99.90;;;;;;5041732;28;20793;-84
2021/09/29 09:40:17;;;;;;;0.50;0.40;;;12.90;99.90;;;;;;5041625;28;20457;-83
2021/09/29 09:42:46;;;;;;;0.50;0.40;;;12.90;99.90;;;;;;5040682;28;20418;-85
2021/09/29 09:45:14;;;;;;;1.25;1.15;;;12.80;99.90;;;;;;5038261;28;20486;-83
2021/09/29 09:47:43;;;;;;;0.80;0.80;;;12.70;99.90;;;;;;5038176;28;20202;-84
2021/09/29 09:50:12;;;;;;;1.33;1.23;;;12.60;99.90;;;;;;5038991;28;20462;-83
2021/09/29 09:52:42;;;;;;;0.73;0.60;;;12.60;99.90;;;;;;5038320;28;20459;-84
2021/09/29 09:55:12;;;;;;;0.60;0.50;;;12.60;99.90;;;;;;5039262;28;20484;-83
2021/09/29 09:57:40;;;;;;;0.50;0.40;;;12.60;99.90;;;;;;5039569;28;20438;-84
2021/09/29 10:00:09;;;;;;;0.50;0.40;;;12.70;99.90;;;;;;5037971;28;20504;-84
2021/09/29 10:02:41;;;;;;;0.50;0.40;;;12.70;99.90;;;;;;5038077;28;20445;-83
2021/09/29 10:05:08;;;;;;;1.37;1.27;;;12.80;99.90;;;;;;5037966;28;20478;-82
2021/09/29 10:07:35;;;;;;;1.90;0.70;;;12.80;99.90;;;;;;5037597;28;20434;-84
2021/09/29 10:10:05;;;;;;;0.60;0.50;;;12.80;99.90;;;;;;5039403;28;20437;-84
2021/09/29 10:12:47;;;;;;;1.00;0.87;;;12.70;99.90;;;;;;5039831;28;21000;-83
2021/09/29 10:23:58;;;;;;;0.50;0.40;;;12.50;99.90;;;;;;5037037;28;20444;-83
2021/09/29 10:26:25;;;;;;;2.50;0.90;;;12.50;99.90;;;;;;5022233;28;20474;-84
2021/09/29 10:29:03;;;;;;;0.50;0.40;;;12.40;99.90;;;;;;5021653;28;20448;-80
2021/09/29 10:31:42;;;;;;;2.65;2.40;;;12.40;99.90;;;;;;5020650;28;20196;-84
2021/09/29 10:34:24;;;;;;;0.80;0.80;;;12.30;99.90;;;;;;5038524;28;20700;-81
2021/09/29 10:37:11;;;;;;;0.50;0.40;;;12.30;99.90;;;;;;5038115;28;20503;-83
2021/09/29 10:42:26;;;;;;;0.60;0.50;;;12.40;99.90;;;;;;5038261;28;20276;-81
2021/09/29 10:48:06;;;;;;;0.85;0.60;;;12.40;99.90;;;;;;5038668;28;20208;-83
2021/09/29 11:07:15;;;;;;;1.20;1.10;;;12.60;99.90;;;;;;5029003;28;20202;-82
2021/09/29 11:10:07;;;;;;;0.60;0.50;;;12.70;99.90;;;;;;5020197;28;20684;-84
2021/09/29 11:29:22;;;;;;;0.50;0.40;;;12.60;99.90;;;;;;5038668;28;20235;-84
2021/09/29 11:31:51;;;;;;;0.50;0.40;;;12.60;99.90;;;;;;5038251;28;20203;-82
2021/09/29 11:34:23;;;;;;;0.52;0.52;;;12.60;99.90;;;;;;5041779;28;20223;-82
2021/09/29 11:37:00;;;;;;;0.50;0.40;;;12.60;99.90;;;;;;5041467;28;20184;-84
2021/09/29 12:09:55;;;;;;;0.50;0.40;;;12.30;99.90;;;;;;5045353;28;20203;-83
2021/09/29 12:12:25;;;;;;;0.50;0.43;;;12.90;99.90;;;;;;5044914;28;20218;-82
2021/09/29 12:14:53;;;;;;;0.50;0.40;;;13.50;99.90;;;;;;5046271;28;20486;-82
2021/09/29 12:17:25;;;;;;;1.17;1.17;;;13.80;99.90;;;;;;5045346;28;20197;-81
2021/09/29 12:19:56;;;;;;;0.87;0.87;;;14.10;99.90;;;;;;5044079;28;20815;-83
2021/09/29 12:22:26;;;;;;;0.50;0.40;;;14.10;99.90;;;;;;5052795;28;20446;-84
2021/09/29 12:25:00;;;;;;;0.50;0.40;;;14.20;99.90;;;;;;5044461;28;20480;-85
2021/09/29 12:27:33;;;;;;;1.60;0.85;;;14.00;99.90;;;;;;5046125;28;20505;-83
2021/09/29 12:30:11;;;;;;;1.88;1.15;;;13.70;99.90;;;;;;5047597;28;20246;-84
2021/09/29 12:32:54;;;;;;;0.90;0.70;;;13.60;99.90;;;;;;5045533;28;20684;-82
2021/09/29 12:35:32;;;;;;;0.50;0.40;;;13.70;99.90;;;;;;5045080;28;20939;-83
2021/09/29 12:38:03;;;;;;;0.60;0.50;;;14.40;99.90;;;;;;5045641;28;20461;-85
2021/09/29 12:40:31;;;;;;;0.50;0.40;;;15.00;99.90;;;;;;5044947;28;20447;-82
2021/09/29 12:43:00;;;;;;;0.60;0.57;;;15.20;99.90;;;;;;5045483;28;20414;-82
2021/09/29 12:45:28;;;;;;;0.60;0.57;;;15.00;99.90;;;;;;5045523;28;20478;-84
2021/09/29 12:47:57;;;;;;;0.50;0.50;;;14.60;99.90;;;;;;5044974;28;20453;-83
2021/09/29 12:50:26;;;;;;;0.60;0.60;;;14.20;99.90;;;;;;5043749;28;20492;-83
2021/09/29 12:52:56;;;;;;;0.85;0.85;;;13.80;99.90;;;;;;5045134;28;20765;-84
2021/09/29 12:55:32;;;;;;;0.50;0.40;;;13.40;99.90;;;;;;5043500;28;20311;-84
2021/09/29 12:57:59;;;;;;;1.00;0.60;;;13.30;99.90;;;;;;5044742;28;20509;-84
2021/09/29 13:00:26;;;;;;;0.50;0.40;;;13.30;99.90;;;;;;5044108;28;20459;-83
2021/09/29 13:02:52;;;;;;;0.90;0.90;;;13.30;99.90;;;;;;5044779;28;20438;-83
2021/09/29 13:05:20;;;;;;;0.70;0.70;;;13.10;99.90;;;;;;5044239;28;20478;-82
2021/09/29 13:07:47;;;;;;;0.60;0.50;;;12.90;99.90;;;;;;5045008;28;20195;-84
2021/09/29 13:10:14;;;;;;;0.60;0.50;;;12.50;99.90;;;;;;5046692;28;20199;-83
2021/09/29 13:12:42;;;;;;;0.50;0.40;;;11.90;99.90;;;;;;5048056;28;20194;-82
2021/09/29 13:15:10;;;;;;;0.50;0.50;;;11.40;99.90;;;;;;5048352;28;20216;-80
2021/09/29 13:17:37;;;;;;;0.50;0.40;;;10.90;99.90;;;;;;5041524;28;20194;-81
2021/09/29 13:20:06;;;;;;;0.60;0.50;;;10.50;99.90;;;;;;5046267;28;20201;-84
2021/09/29 13:22:36;;;;;;;5.32;0.70;;;10.20;99.90;;;;;;5044833;28;20207;-86
2021/09/29 13:38:45;;;;;;;0.50;0.40;;;9.80;99.90;;;;;;5046809;28;20203;-85
2021/09/29 13:41:12;;;;;;;0.50;0.40;;;10.00;99.90;;;;;;5047540;28;20228;-84
2021/09/29 13:43:41;;;;;;;0.50;0.40;;;10.30;99.90;;;;;;5046853;28;20433;-83
2021/09/29 13:46:09;;;;;;;0.50;0.40;;;10.90;99.90;;;;;;5047404;28;20198;-85
2021/09/29 13:48:37;;;;;;;0.50;0.40;;;11.40;99.90;;;;;;5046602;28;20266;-84
2021/09/29 13:51:04;;;;;;;0.50;0.40;;;12.40;99.90;;;;;;5047389;28;20199;-84
2021/09/29 13:53:31;;;;;;;0.50;0.40;;;13.80;99.90;;;;;;5046923;28;20473;-84
2021/09/29 13:56:02;;;;;;;0.50;0.30;;;14.80;99.90;;;;;;5045427;28;20482;-85
2021/09/29 14:01:31;;;;;;;0.50;0.40;;;15.80;99.90;;;;;;5044905;28;20449;-82
2021/09/29 14:29:07;;;;;;;0.50;0.40;;;13.10;99.90;;;;;;5099575;28;20422;-84
2021/09/29 14:31:39;;;;;;;0.50;0.40;;;13.40;99.90;;;;;;5098948;28;20449;-83
2021/09/29 14:34:07;;;;;;;1.60;1.50;;;13.60;99.90;;;;;;5100649;28;20463;-85
2021/09/29 14:36:34;;;;;;;0.50;0.40;;;13.70;99.90;;;;;;5099364;28;20829;-83
2021/09/29 14:39:00;;;;;;;0.50;0.40;;;13.70;99.90;;;;;;5100471;28;20446;-84
2021/09/29 14:41:27;;;;;;;0.50;0.40;;;13.80;99.90;;;;;;5099300;28;20446;-82
2021/09/29 14:43:54;;;;;;;0.50;0.43;;;13.50;99.90;;;;;;5098186;28;20467;-83
2021/09/29 14:46:21;;;;;;;0.80;0.80;;;13.30;99.90;;;;;;5099511;28;20435;-84
2021/09/29 14:48:48;;;;;;;0.50;0.40;;;13.30;99.90;;;;;;5098630;28;21070;-82
2021/09/29 14:51:16;;;;;;;0.50;0.40;;;13.10;99.90;;;;;;5097513;28;20440;-82
2021/09/29 14:53:43;;;;;;;0.50;0.40;;;13.00;99.90;;;;;;5097289;28;20225;-82
2021/09/29 14:56:10;;;;;;;0.60;0.50;;;12.90;99.90;;;;;;5096123;28;20485;-83
2021/09/29 14:58:39;;;;;;;0.95;0.95;;;12.80;99.90;;;;;;5096801;28;20198;-82
2021/09/29 15:01:05;;;;;;;0.50;0.40;;;12.70;99.90;;;;;;5097679;28;20245;-82
2021/09/29 15:03:32;;;;;;;2.05;1.27;;;12.50;99.90;;;;;;5097447;28;20289;-82
2021/09/29 15:05:59;;;;;;;1.48;0.50;;;12.40;99.90;;;;;;5096498;28;20197;-81
2021/09/29 15:08:27;;;;;;;0.60;0.50;;;12.30;99.90;;;;;;5096488;28;20207;-83
2021/09/29 15:10:54;;;;;;;0.50;0.40;;;12.30;99.90;;;;;;5095594;28;20201;-84
2021/09/29 15:13:26;;;;;;;0.50;0.40;;;12.30;99.90;;;;;;5097617;28;20207;-84
2021/09/29 15:15:57;;;;;;;0.50;0.40;;;12.30;99.90;;;;;;5095763;28;20208;-82